Terminal Aerodrome Forecast
Issued by NWS Salt Lake City, UT

Home | Current Version | Previous Version | Text Only | Print | Product List | Glossary On
Versions: 1 2 3 4 5 6 7 8 9 10 11 12 13 14 15 16 17 18 19 20 21 22 23 24 25 26 27 28 29 30 31 32 33 34 35 36 37 38 39 40 41 42 43 44 45 46 47
000
FTUS45 KSLC 190249 AAB
TAFSLC
TAF AMD
KSLC 190249Z 1903/2006 16010KT P6SM BKN150 OVC200
     FM190500 17016G23KT P6SM SCT100 BKN150
     FM191100 18018G28KT P6SM SCT070 BKN110
     FM191900 24016G25KT P6SM VCSH SCT040 BKN080
     FM192300 31016KT P6SM -RASN SCT030 BKN060
     FM200100 35012KT 3SM -SN BKN030 OVC050=

USA.gov is the U.S. government's official web portal to all federal, state and local government web resources and services.